createdAt,value
2018-08-19T00:00:59.340Z,1017.08
2018-08-19T00:01:59.268Z,1017.07
2018-08-19T00:02:59.243Z,1017.06
2018-08-19T00:03:59.256Z,1017.04
2018-08-19T00:04:59.263Z,1017.05
2018-08-19T00:05:59.285Z,1016.98
2018-08-19T00:06:59.252Z,1016.97
2018-08-19T00:07:59.272Z,1016.95
2018-08-19T00:08:59.261Z,1016.95
2018-08-19T00:09:59.265Z,1016.98
2018-08-19T00:10:59.319Z,1016.98
2018-08-19T00:11:59.270Z,1017.00
2018-08-19T00:12:59.296Z,1017.00
2018-08-19T00:13:59.311Z,1016.98
2018-08-19T00:14:59.293Z,1016.96
2018-08-19T00:15:59.312Z,1017.02
2018-08-19T00:16:59.347Z,1017.04
2018-08-19T00:17:59.288Z,1017.03
2018-08-19T00:18:59.357Z,1016.99
2018-08-19T00:19:59.306Z,1017.04
2018-08-19T00:20:59.323Z,1017.03
2018-08-19T00:21:59.362Z,1017.03
2018-08-19T00:22:59.395Z,1017.04
2018-08-19T00:23:59.349Z,1017.03
2018-08-19T00:24:59.348Z,1017.06
2018-08-19T00:25:59.333Z,1017.06
2018-08-19T00:26:59.359Z,1017.01
2018-08-19T00:27:59.336Z,1017.04
2018-08-19T00:28:59.330Z,1017.02
2018-08-19T00:29:59.329Z,1017.00
2018-08-19T00:30:59.611Z,1016.96
2018-08-19T00:31:59.330Z,1016.92
2018-08-19T00:32:59.359Z,1016.95
2018-08-19T00:33:59.338Z,1016.97
2018-08-19T00:34:59.373Z,1016.96
2018-08-19T00:35:59.328Z,1016.95
2018-08-19T00:36:59.335Z,1016.95
2018-08-19T00:37:59.365Z,1016.97
2018-08-19T00:38:59.350Z,1016.96
2018-08-19T00:39:59.322Z,1016.97
2018-08-19T00:40:59.329Z,1016.95
2018-08-19T00:41:59.389Z,1017.00
2018-08-19T00:42:59.423Z,1016.99
2018-08-19T00:43:59.414Z,1016.94
2018-08-19T00:44:59.373Z,1016.99
2018-08-19T00:45:59.334Z,1016.97
2018-08-19T00:46:59.405Z,1016.95
2018-08-19T00:47:59.374Z,1016.96
2018-08-19T00:48:59.362Z,1016.94
2018-08-19T00:49:59.393Z,1016.96
2018-08-19T00:50:59.404Z,1016.93
2018-08-19T00:51:59.386Z,1016.93
2018-08-19T00:52:59.364Z,1016.95
2018-08-19T00:53:59.385Z,1016.95
2018-08-19T00:54:59.435Z,1016.92
2018-08-19T00:55:59.394Z,1016.94
2018-08-19T00:56:59.414Z,1016.91
2018-08-19T00:57:59.406Z,1016.89
2018-08-19T00:58:59.431Z,1016.91
2018-08-19T00:59:59.413Z,1016.91
2018-08-19T01:00:59.463Z,1016.90
2018-08-19T01:01:59.449Z,1016.90
2018-08-19T01:02:59.378Z,1016.92
2018-08-19T01:04:00.250Z,1016.90
2018-08-19T01:04:59.383Z,1016.86
2018-08-19T01:05:59.454Z,1016.86
2018-08-19T01:06:59.412Z,1016.82
2018-08-19T01:07:59.479Z,1016.83
2018-08-19T01:09:00.250Z,1016.86
2018-08-19T01:09:59.583Z,1016.86
2018-08-19T01:10:59.500Z,1016.84
2018-08-19T01:11:59.457Z,1016.84
2018-08-19T01:12:59.489Z,1016.86
2018-08-19T01:13:59.467Z,1016.85
2018-08-19T01:14:59.480Z,1016.87
2018-08-19T01:15:59.473Z,1016.85
2018-08-19T01:17:00.252Z,1016.84
2018-08-19T01:17:59.478Z,1016.81
2018-08-19T01:18:59.643Z,1016.84
2018-08-19T01:19:59.464Z,1016.83
2018-08-19T01:20:59.480Z,1016.80
2018-08-19T01:21:59.473Z,1016.76
2018-08-19T01:22:59.474Z,1016.82
2018-08-19T01:23:59.491Z,1016.81
2018-08-19T01:24:59.460Z,1016.80
2018-08-19T01:25:59.553Z,1016.80
2018-08-19T01:26:59.490Z,1016.81
2018-08-19T01:27:59.477Z,1016.81
2018-08-19T01:28:59.502Z,1016.83
2018-08-19T01:29:59.743Z,1016.81
2018-08-19T01:30:59.470Z,1016.83
2018-08-19T01:31:59.506Z,1016.82
2018-08-19T01:32:59.476Z,1016.79
2018-08-19T01:33:59.520Z,1016.81
2018-08-19T01:34:59.539Z,1016.78
2018-08-19T01:35:59.544Z,1016.74
2018-08-19T01:36:59.527Z,1016.74
2018-08-19T01:37:59.520Z,1016.74
2018-08-19T01:38:59.566Z,1016.76
2018-08-19T01:39:59.524Z,1016.72
2018-08-19T01:40:59.465Z,1016.74
2018-08-19T01:41:59.478Z,1016.69
2018-08-19T01:42:59.541Z,1016.68
2018-08-19T01:43:59.505Z,1016.68
2018-08-19T01:44:59.549Z,1016.66
2018-08-19T01:45:59.534Z,1016.68
2018-08-19T01:46:59.529Z,1016.66
2018-08-19T01:47:59.562Z,1016.64
2018-08-19T01:48:59.828Z,1016.63
2018-08-19T01:49:59.538Z,1016.64
2018-08-19T01:50:59.550Z,1016.67
2018-08-19T01:51:59.522Z,1016.65
2018-08-19T01:52:59.591Z,1016.65
2018-08-19T01:53:59.534Z,1016.66
2018-08-19T01:54:59.544Z,1016.63
2018-08-19T01:55:59.541Z,1016.64
2018-08-19T01:56:59.525Z,1016.61
2018-08-19T01:58:00.275Z,1016.66
2018-08-19T01:58:59.671Z,1016.62
2018-08-19T01:59:59.604Z,1016.63
2018-08-19T02:00:59.634Z,1016.58
2018-08-19T02:01:59.589Z,1016.62
2018-08-19T02:02:59.577Z,1016.63
2018-08-19T02:03:59.602Z,1016.63
2018-08-19T02:04:59.573Z,1016.61
2018-08-19T02:05:59.531Z,1016.63
2018-08-19T02:06:59.617Z,1016.63
2018-08-19T02:07:59.594Z,1016.64
2018-08-19T02:08:59.604Z,1016.63
2018-08-19T02:09:59.596Z,1016.62
2018-08-19T02:10:59.656Z,1016.60
2018-08-19T02:11:59.584Z,1016.59
2018-08-19T02:12:59.649Z,1016.56
2018-08-19T02:13:59.596Z,1016.55
2018-08-19T02:14:59.599Z,1016.55
2018-08-19T02:15:59.663Z,1016.55
2018-08-19T02:16:59.610Z,1016.53
2018-08-19T02:17:59.712Z,1016.53
2018-08-19T02:18:59.654Z,1016.52
2018-08-19T02:19:59.597Z,1016.53
2018-08-19T02:20:59.668Z,1016.56
2018-08-19T02:22:00.277Z,1016.57
2018-08-19T02:22:59.614Z,1016.53
2018-08-19T02:23:59.667Z,1016.53
2018-08-19T02:24:59.636Z,1016.53
2018-08-19T02:25:59.649Z,1016.56
2018-08-19T02:26:59.661Z,1016.52
2018-08-19T02:27:59.756Z,1016.51
2018-08-19T02:28:59.676Z,1016.52
2018-08-19T02:29:59.678Z,1016.53
2018-08-19T02:30:59.697Z,1016.53
2018-08-19T02:31:59.650Z,1016.51
2018-08-19T02:32:59.694Z,1016.55
2018-08-19T02:33:59.682Z,1016.55
2018-08-19T02:34:59.822Z,1016.51
2018-08-19T02:35:59.692Z,1016.52
2018-08-19T02:36:59.658Z,1016.54
2018-08-19T02:37:59.692Z,1016.53
2018-08-19T02:38:59.694Z,1016.55
2018-08-19T02:39:59.659Z,1016.59
2018-08-19T02:40:59.670Z,1016.55
2018-08-19T02:41:59.685Z,1016.62
2018-08-19T02:42:59.666Z,1016.53
2018-08-19T02:43:59.659Z,1016.59
2018-08-19T02:44:59.695Z,1016.55
2018-08-19T02:45:59.818Z,1016.57
2018-08-19T02:46:59.702Z,1016.54
2018-08-19T02:47:59.699Z,1016.57
2018-08-19T02:48:59.715Z,1016.54
2018-08-19T02:49:59.706Z,1016.55
2018-08-19T02:50:59.649Z,1016.50
2018-08-19T02:51:59.657Z,1016.51
2018-08-19T02:52:59.649Z,1016.50
2018-08-19T02:53:59.671Z,1016.48
2018-08-19T02:54:59.742Z,1016.46
2018-08-19T02:55:59.680Z,1016.44
2018-08-19T02:56:59.720Z,1016.43
2018-08-19T02:57:59.688Z,1016.43
2018-08-19T02:58:59.791Z,1016.44
2018-08-19T02:59:59.731Z,1016.43
2018-08-19T03:00:59.709Z,1016.40
2018-08-19T03:01:59.711Z,1016.42
2018-08-19T03:02:59.752Z,1016.43
2018-08-19T03:03:59.724Z,1016.44
2018-08-19T03:05:00.296Z,1016.41
2018-08-19T03:05:59.733Z,1016.41
2018-08-19T03:06:59.937Z,1016.44
2018-08-19T03:07:59.697Z,1016.48
2018-08-19T03:08:59.744Z,1016.45
2018-08-19T03:09:59.765Z,1016.45
2018-08-19T03:10:59.733Z,1016.43
2018-08-19T03:11:59.778Z,1016.42
2018-08-19T03:12:59.791Z,1016.38
2018-08-19T03:13:59.717Z,1016.38
2018-08-19T03:14:59.774Z,1016.37
2018-08-19T03:15:59.792Z,1016.38
2018-08-19T03:16:59.815Z,1016.38
2018-08-19T03:17:59.802Z,1016.39
2018-08-19T03:18:59.752Z,1016.38
2018-08-19T03:19:59.786Z,1016.41
2018-08-19T03:20:59.768Z,1016.39
2018-08-19T03:21:59.784Z,1016.33
2018-08-19T03:23:00.005Z,1016.42
2018-08-19T03:23:59.823Z,1016.35
2018-08-19T03:24:59.839Z,1016.30
2018-08-19T03:25:59.781Z,1016.31
2018-08-19T03:26:59.789Z,1016.33
2018-08-19T03:27:59.790Z,1016.32
2018-08-19T03:28:59.790Z,1016.33
2018-08-19T03:29:59.761Z,1016.35
2018-08-19T03:30:59.801Z,1016.36
2018-08-19T03:31:59.798Z,1016.38
2018-08-19T03:32:59.827Z,1016.34
2018-08-19T03:33:59.756Z,1016.33
2018-08-19T03:34:59.849Z,1016.39
2018-08-19T03:35:59.853Z,1016.29
2018-08-19T03:36:59.803Z,1016.25
2018-08-19T03:37:59.883Z,1016.28
2018-08-19T03:38:59.800Z,1016.26
2018-08-19T03:39:59.778Z,1016.20
2018-08-19T03:40:59.805Z,1016.22
2018-08-19T03:41:59.778Z,1016.17
2018-08-19T03:42:59.782Z,1016.21
2018-08-19T03:43:59.809Z,1016.19
2018-08-19T03:44:59.895Z,1016.21
2018-08-19T03:46:00.072Z,1016.20
2018-08-19T03:46:59.834Z,1016.19
2018-08-19T03:47:59.836Z,1016.22
2018-08-19T03:48:59.834Z,1016.22
2018-08-19T03:49:59.835Z,1016.24
2018-08-19T03:50:59.849Z,1016.24
2018-08-19T03:51:59.843Z,1016.21
2018-08-19T03:52:59.855Z,1016.21
2018-08-19T03:53:59.874Z,1016.22
2018-08-19T03:54:59.875Z,1016.23
2018-08-19T03:55:59.856Z,1016.17
2018-08-19T03:56:59.848Z,1016.18
2018-08-19T03:57:59.904Z,1016.18
2018-08-19T03:58:59.999Z,1016.18
2018-08-19T03:59:59.874Z,1016.14
2018-08-19T04:00:59.841Z,1016.15
2018-08-19T04:01:59.920Z,1016.12
2018-08-19T04:02:59.856Z,1016.08
2018-08-19T04:03:59.893Z,1016.12
2018-08-19T04:04:59.863Z,1016.15
2018-08-19T04:05:59.901Z,1016.17
2018-08-19T04:06:59.912Z,1016.16
2018-08-19T04:07:59.877Z,1016.19
2018-08-19T04:08:59.877Z,1016.22
2018-08-19T04:09:59.943Z,1016.20
2018-08-19T04:10:59.877Z,1016.22
2018-08-19T04:11:59.882Z,1016.23
2018-08-19T04:12:59.904Z,1016.22
2018-08-19T04:13:59.857Z,1016.22
2018-08-19T04:14:59.890Z,1016.19
2018-08-19T04:16:00.316Z,1016.20
2018-08-19T04:16:59.916Z,1016.16
2018-08-19T04:17:59.906Z,1016.19
2018-08-19T04:18:59.931Z,1016.17
2018-08-19T04:19:59.962Z,1016.21
2018-08-19T04:20:59.916Z,1016.17
2018-08-19T04:21:59.929Z,1016.27
2018-08-19T04:22:59.904Z,1016.26
2018-08-19T04:23:59.923Z,1016.27
2018-08-19T04:25:00.066Z,1016.24
2018-08-19T04:25:59.929Z,1016.28
2018-08-19T04:26:59.909Z,1016.27
2018-08-19T04:27:59.978Z,1016.25
2018-08-19T04:28:59.970Z,1016.26
2018-08-19T04:29:59.920Z,1016.27
2018-08-19T04:30:59.982Z,1016.27
2018-08-19T04:31:59.967Z,1016.32
2018-08-19T04:32:59.940Z,1016.26
2018-08-19T04:33:59.992Z,1016.28
2018-08-19T04:34:59.926Z,1016.29
2018-08-19T04:35:59.976Z,1016.28
2018-08-19T04:36:59.995Z,1016.27
2018-08-19T04:37:59.959Z,1016.25
2018-08-19T04:38:59.937Z,1016.23
2018-08-19T04:40:00.075Z,1016.22
2018-08-19T04:40:59.955Z,1016.22
2018-08-19T04:41:59.935Z,1016.20
2018-08-19T04:42:59.939Z,1016.24
2018-08-19T04:43:59.949Z,1016.25
2018-08-19T04:44:59.983Z,1016.22
2018-08-19T04:45:59.959Z,1016.24
2018-08-19T04:46:59.958Z,1016.27
2018-08-19T04:47:59.969Z,1016.28
2018-08-19T04:49:00.005Z,1016.26
2018-08-19T04:49:59.999Z,1016.29
2018-08-19T04:51:00.033Z,1016.28
2018-08-19T04:51:59.997Z,1016.28
2018-08-19T04:53:00.080Z,1016.27
2018-08-19T04:53:59.990Z,1016.27
2018-08-19T04:55:00.000Z,1016.27
2018-08-19T04:55:59.999Z,1016.23
2018-08-19T04:56:59.965Z,1016.23
2018-08-19T04:57:59.974Z,1016.25
2018-08-19T04:59:00.016Z,1016.25
2018-08-19T05:00:00.030Z,1016.26
2018-08-19T05:00:59.978Z,1016.30
2018-08-19T05:02:00.003Z,1016.28
2018-08-19T05:03:00.021Z,1016.33
2018-08-19T05:04:00.836Z,1016.33
2018-08-19T05:05:00.014Z,1016.30
2018-08-19T05:06:00.045Z,1016.34
2018-08-19T05:07:00.081Z,1016.31
2018-08-19T05:08:00.072Z,1016.33
2018-08-19T05:09:00.016Z,1016.32
2018-08-19T05:10:00.024Z,1016.29
2018-08-19T05:11:00.022Z,1016.35
2018-08-19T05:12:00.059Z,1016.30
2018-08-19T05:13:00.047Z,1016.28
2018-08-19T05:14:00.039Z,1016.28
2018-08-19T05:15:00.040Z,1016.29
2018-08-19T05:16:00.000Z,1016.31
2018-08-19T05:17:00.023Z,1016.35
2018-08-19T05:18:00.033Z,1016.34
2018-08-19T05:19:00.090Z,1016.29
2018-08-19T05:20:00.080Z,1016.35
2018-08-19T05:21:00.059Z,1016.34
2018-08-19T05:22:00.055Z,1016.33
2018-08-19T05:23:00.056Z,1016.31
2018-08-19T05:24:00.089Z,1016.33
2018-08-19T05:25:00.032Z,1016.31
2018-08-19T05:26:00.065Z,1016.33
2018-08-19T05:27:00.066Z,1016.35
2018-08-19T05:28:00.100Z,1016.37
2018-08-19T05:29:00.096Z,1016.39
2018-08-19T05:30:00.090Z,1016.39
2018-08-19T05:31:00.093Z,1016.42
2018-08-19T05:32:00.091Z,1016.45
2018-08-19T05:33:00.108Z,1016.46
2018-08-19T05:34:00.138Z,1016.44
2018-08-19T05:35:00.082Z,1016.44
2018-08-19T05:36:00.124Z,1016.49
2018-08-19T05:37:00.095Z,1016.50
2018-08-19T05:38:00.130Z,1016.56
2018-08-19T05:39:00.113Z,1016.56
2018-08-19T05:40:00.109Z,1016.57
2018-08-19T05:41:00.125Z,1016.56
2018-08-19T05:42:00.130Z,1016.61
2018-08-19T05:43:00.377Z,1016.62
2018-08-19T05:44:00.072Z,1016.63
2018-08-19T05:45:00.070Z,1016.61
2018-08-19T05:46:00.114Z,1016.65
2018-08-19T05:47:00.166Z,1016.66
2018-08-19T05:48:00.116Z,1016.67
2018-08-19T05:49:00.197Z,1016.64
2018-08-19T05:50:00.165Z,1016.63
2018-08-19T05:51:00.132Z,1016.59
2018-08-19T05:52:00.140Z,1016.56
2018-08-19T05:53:00.148Z,1016.57
2018-08-19T05:54:00.207Z,1016.53
2018-08-19T05:55:00.140Z,1016.54
2018-08-19T05:56:00.203Z,1016.56
2018-08-19T05:57:00.341Z,1016.53
2018-08-19T05:58:00.148Z,1016.48
2018-08-19T05:59:00.148Z,1016.52
2018-08-19T06:00:00.186Z,1016.52
2018-08-19T06:01:00.239Z,1016.49
2018-08-19T06:02:00.219Z,1016.49
2018-08-19T06:03:00.181Z,1016.54
2018-08-19T06:04:00.156Z,1016.49
2018-08-19T06:05:00.195Z,1016.55
2018-08-19T06:06:00.209Z,1016.50
2018-08-19T06:07:00.153Z,1016.54
2018-08-19T06:08:00.172Z,1016.51
2018-08-19T06:09:00.167Z,1016.57
2018-08-19T06:10:00.196Z,1016.53
2018-08-19T06:11:00.191Z,1016.51
2018-08-19T06:12:00.254Z,1016.52
2018-08-19T06:13:00.191Z,1016.52
2018-08-19T06:14:00.228Z,1016.54
2018-08-19T06:15:00.211Z,1016.56
2018-08-19T06:16:00.288Z,1016.56
2018-08-19T06:17:00.188Z,1016.62
2018-08-19T06:18:00.212Z,1016.60
2018-08-19T06:19:00.228Z,1016.58
2018-08-19T06:20:00.203Z,1016.61
2018-08-19T06:21:00.243Z,1016.63
2018-08-19T06:22:00.639Z,1016.61
2018-08-19T06:23:00.263Z,1016.63
2018-08-19T06:24:00.247Z,1016.57
2018-08-19T06:25:00.297Z,1016.57
2018-08-19T06:26:00.331Z,1016.57
2018-08-19T06:27:00.289Z,1016.57
2018-08-19T06:28:00.331Z,1016.55
2018-08-19T06:29:00.288Z,1016.61
2018-08-19T06:30:00.263Z,1016.65
2018-08-19T06:31:00.358Z,1016.61
2018-08-19T06:32:00.276Z,1016.64
2018-08-19T06:33:00.280Z,1016.64
2018-08-19T06:34:00.360Z,1016.66
2018-08-19T06:35:00.511Z,1016.65
2018-08-19T06:36:00.369Z,1016.67
2018-08-19T06:37:00.262Z,1016.62
2018-08-19T06:38:00.262Z,1016.69
2018-08-19T06:39:00.877Z,1016.66
2018-08-19T06:40:00.326Z,1016.68
2018-08-19T06:41:00.310Z,1016.71
2018-08-19T06:42:00.328Z,1016.68
2018-08-19T06:43:00.309Z,1016.71
2018-08-19T06:44:00.310Z,1016.77
2018-08-19T06:45:00.338Z,1016.79
2018-08-19T06:46:00.341Z,1016.78
2018-08-19T06:47:00.345Z,1016.84
2018-08-19T06:48:00.312Z,1016.82
2018-08-19T06:49:00.344Z,1016.85
2018-08-19T06:50:00.333Z,1016.86
2018-08-19T06:51:00.335Z,1016.88
2018-08-19T06:52:00.541Z,1016.87
2018-08-19T06:53:00.346Z,1016.92
2018-08-19T06:54:00.391Z,1016.92
2018-08-19T06:55:00.374Z,1016.91
2018-08-19T06:56:00.558Z,1016.87
2018-08-19T06:57:00.373Z,1016.91
2018-08-19T06:58:00.427Z,1016.89
2018-08-19T06:59:00.399Z,1016.90
2018-08-19T07:00:00.406Z,1016.90
2018-08-19T07:01:00.543Z,1016.90
2018-08-19T07:02:00.408Z,1016.91
2018-08-19T07:03:00.471Z,1016.93
2018-08-19T07:04:00.571Z,1016.99
2018-08-19T07:05:00.501Z,1016.92
2018-08-19T07:06:00.465Z,1016.93
2018-08-19T07:07:00.462Z,1016.95
2018-08-19T07:08:00.570Z,1016.97
2018-08-19T07:09:00.466Z,1016.95
2018-08-19T07:10:00.498Z,1016.97
2018-08-19T07:11:00.475Z,1017.00
2018-08-19T07:12:00.495Z,1016.99
2018-08-19T07:13:00.506Z,1017.05
2018-08-19T07:14:00.497Z,1017.04
2018-08-19T07:15:00.539Z,1017.05
2018-08-19T07:16:02.526Z,1017.07
2018-08-19T07:17:00.524Z,1017.08
2018-08-19T07:18:00.646Z,1017.11
2018-08-19T07:19:00.657Z,1017.12
2018-08-19T07:20:00.551Z,1017.11
2018-08-19T07:21:00.607Z,1017.04
2018-08-19T07:22:00.608Z,1017.05
2018-08-19T07:23:00.597Z,1017.12
2018-08-19T07:24:00.646Z,1017.10
2018-08-19T07:25:00.636Z,1017.15
2018-08-19T07:26:00.621Z,1017.14
2018-08-19T07:27:00.702Z,1017.17
2018-08-19T07:28:00.636Z,1017.15
2018-08-19T07:29:00.755Z,1017.18
2018-08-19T07:30:00.657Z,1017.23
2018-08-19T07:31:00.717Z,1017.22
2018-08-19T07:32:00.682Z,1017.23
2018-08-19T07:33:00.705Z,1017.26
2018-08-19T07:34:00.708Z,1017.24
2018-08-19T07:35:00.713Z,1017.26
2018-08-19T07:36:00.703Z,1017.33
2018-08-19T07:37:00.866Z,1017.37
2018-08-19T07:38:00.748Z,1017.37
2018-08-19T07:39:01.415Z,1017.42
2018-08-19T07:40:01.071Z,1017.43
2018-08-19T07:41:00.788Z,1017.46
2018-08-19T07:42:00.780Z,1017.49
2018-08-19T07:43:00.806Z,1017.46
2018-08-19T07:44:00.889Z,1017.53
2018-08-19T07:45:00.770Z,1017.52
2018-08-19T07:46:00.777Z,1017.62
2018-08-19T07:47:00.826Z,1017.73
2018-08-19T07:48:00.871Z,1017.78
2018-08-19T07:49:00.857Z,1017.86
2018-08-19T07:50:00.824Z,1017.85
2018-08-19T07:51:00.979Z,1017.91
2018-08-19T07:52:00.850Z,1017.92
2018-08-19T07:53:00.846Z,1018.00
2018-08-19T07:54:00.936Z,1018.06
2018-08-19T07:55:00.888Z,1018.07
2018-08-19T07:56:00.935Z,1018.17
2018-08-19T07:57:00.994Z,1018.25
2018-08-19T07:58:00.983Z,1018.21
2018-08-19T07:59:00.969Z,1018.32
2018-08-19T08:00:00.976Z,1018.32
2018-08-19T08:01:01.083Z,1018.29
2018-08-19T08:02:00.969Z,1018.41
2018-08-19T08:03:01.070Z,1018.45
2018-08-19T08:04:00.986Z,1018.41
2018-08-19T08:05:00.989Z,1018.38
2018-08-19T08:06:01.010Z,1018.35
2018-08-19T08:07:01.028Z,1018.40
2018-08-19T08:08:01.095Z,1018.39
2018-08-19T08:09:01.040Z,1018.41
2018-08-19T08:10:01.099Z,1018.45
2018-08-19T08:11:01.185Z,1018.46
2018-08-19T08:12:01.160Z,1018.51
2018-08-19T08:13:01.164Z,1018.63
2018-08-19T08:14:01.175Z,1018.70
2018-08-19T08:15:01.239Z,1018.77
2018-08-19T08:16:01.217Z,1018.89
2018-08-19T08:17:01.223Z,1018.98
2018-08-19T08:18:01.217Z,1019.08
2018-08-19T08:19:01.360Z,1019.42
2018-08-19T08:20:01.285Z,1019.94
2018-08-19T08:21:01.980Z,1020.33
2018-08-19T08:22:01.265Z,1020.60
2018-08-19T08:23:01.279Z,1021.05
2018-08-19T08:24:01.297Z,1021.47
2018-08-19T08:25:01.309Z,1020.95
2018-08-19T08:26:01.330Z,1020.48
2018-08-19T08:27:01.331Z,1020.43
2018-08-19T08:28:01.321Z,1020.66
2018-08-19T08:29:01.414Z,1019.95
2018-08-19T08:30:01.363Z,1019.69
2018-08-19T08:31:01.415Z,1019.72
2018-08-19T08:32:01.408Z,1017.41
2018-08-19T08:33:01.401Z,1017.75
2018-08-19T08:34:01.450Z,1019.49
2018-08-19T08:35:01.396Z,1019.66
2018-08-19T08:36:01.454Z,1019.39
2018-08-19T08:37:01.486Z,1019.49
2018-08-19T08:38:01.461Z,1019.63
2018-08-19T08:39:01.476Z,1019.55
2018-08-19T08:40:01.517Z,1019.72
2018-08-19T08:41:01.511Z,1019.33
2018-08-19T08:42:01.524Z,1018.68
2018-08-19T08:43:01.550Z,1017.76
2018-08-19T08:44:01.548Z,1017.69
2018-08-19T08:45:01.572Z,1017.23
2018-08-19T08:46:01.553Z,1017.18
2018-08-19T08:47:01.641Z,1017.56
2018-08-19T08:48:01.673Z,1019.00
2018-08-19T08:49:01.612Z,1019.06
2018-08-19T08:50:01.633Z,1018.74
2018-08-19T08:51:01.639Z,1017.62
2018-08-19T08:52:01.671Z,1017.75
2018-08-19T08:53:01.700Z,1018.50
2018-08-19T08:54:01.698Z,1018.24
2018-08-19T08:55:01.671Z,1030.44
2018-08-19T08:56:01.707Z,1017.01
2018-08-19T08:57:01.709Z,1017.86
2018-08-19T08:58:01.708Z,1016.97
2018-08-19T08:59:01.742Z,1017.39
2018-08-19T09:00:01.802Z,1017.36
2018-08-19T09:01:01.801Z,1017.17
2018-08-19T09:02:01.840Z,1017.41
2018-08-19T09:03:01.851Z,1029.43
2018-08-19T09:04:01.870Z,1017.61
2018-08-19T09:05:01.794Z,1017.03
2018-08-19T09:06:01.806Z,1023.02
2018-08-19T09:08:35.836Z,1016.84
2018-08-19T09:09:35.038Z,1016.74
2018-08-19T09:10:35.880Z,1027.11
2018-08-19T09:11:35.451Z,1017.18
2018-08-19T09:12:35.923Z,1017.75
2018-08-19T09:13:34.980Z,1023.82
2018-08-19T09:14:35.036Z,1021.92
2018-08-19T09:15:37.952Z,1019.96
2018-08-19T09:16:35.056Z,1021.90
2018-08-19T09:17:35.056Z,1020.21
2018-08-19T09:18:35.056Z,1018.15
2018-08-19T09:19:35.057Z,1018.86
2018-08-19T09:20:35.186Z,1018.42
2018-08-19T09:21:35.072Z,1019.90
2018-08-19T09:22:35.101Z,1020.00
2018-08-19T09:23:35.128Z,1018.53
2018-08-19T09:24:35.159Z,1017.49
2018-08-19T09:25:35.123Z,1018.87
2018-08-19T09:26:35.155Z,1018.08
2018-08-19T09:27:35.191Z,1017.11
2018-08-19T09:28:35.186Z,1017.32
2018-08-19T09:29:35.193Z,1017.60
2018-08-19T09:30:35.235Z,1017.63
2018-08-19T09:31:35.201Z,1017.63
2018-08-19T09:32:35.227Z,1016.96
2018-08-19T09:33:35.250Z,1016.76
2018-08-19T09:34:35.215Z,1016.57
2018-08-19T09:35:35.259Z,1016.58
2018-08-19T09:36:35.302Z,1016.57
2018-08-19T09:37:35.329Z,1016.78
2018-08-19T09:38:35.267Z,1016.59
2018-08-19T09:39:35.371Z,1016.63
2018-08-19T09:40:35.362Z,1016.64
2018-08-19T09:41:35.888Z,1016.78
2018-08-19T09:42:35.356Z,1017.40
2018-08-19T09:43:35.330Z,1017.95
2018-08-19T09:44:35.376Z,1017.84
2018-08-19T09:45:35.310Z,1017.84
2018-08-19T09:46:35.312Z,1018.09
2018-08-19T09:47:35.407Z,1016.91
2018-08-19T09:48:35.410Z,1016.95
2018-08-19T09:49:35.439Z,1016.66
2018-08-19T09:50:35.407Z,1016.62
2018-08-19T09:51:35.412Z,1016.91
2018-08-19T09:52:35.455Z,1018.92
2018-08-19T09:53:35.446Z,1016.63
2018-08-19T09:54:35.464Z,1019.15
2018-08-19T09:55:36.397Z,1019.01
2018-08-19T09:56:35.461Z,1019.08
2018-08-19T09:57:35.541Z,1019.40
2018-08-19T09:58:35.509Z,1019.47
2018-08-19T09:59:35.513Z,1019.56
2018-08-19T10:00:35.833Z,1019.20
2018-08-19T10:01:35.600Z,1018.88
2018-08-19T10:02:35.525Z,1017.07
2018-08-19T10:03:35.569Z,1016.85
2018-08-19T10:04:35.521Z,1016.91
2018-08-19T10:05:35.569Z,1017.80
2018-08-19T10:06:35.649Z,1017.63
2018-08-19T10:07:36.098Z,1017.33
2018-08-19T10:08:35.673Z,1017.16
2018-08-19T10:09:35.705Z,1017.18
2018-08-19T10:10:35.623Z,1017.13
2018-08-19T10:11:35.694Z,1017.09
2018-08-19T10:12:35.655Z,1017.06
2018-08-19T10:13:35.745Z,1016.97
2018-08-19T10:14:35.694Z,1016.39
2018-08-19T10:15:35.860Z,1016.63
2018-08-19T10:16:36.572Z,1017.21
2018-08-19T10:17:35.790Z,1016.95
2018-08-19T10:18:35.753Z,1017.26
2018-08-19T10:19:35.807Z,1016.90
2018-08-19T10:20:35.808Z,1017.08
2018-08-19T10:21:35.867Z,1017.18
2018-08-19T10:22:35.866Z,1016.80
2018-08-19T10:23:35.869Z,1016.87
2018-08-19T10:24:35.907Z,1016.85
2018-08-19T10:25:35.899Z,1016.19
2018-08-19T10:26:36.165Z,1016.66
2018-08-19T10:27:35.901Z,1016.72
2018-08-19T10:28:35.958Z,1016.35
2018-08-19T10:29:35.930Z,1016.72
2018-08-19T10:30:36.001Z,1016.78
2018-08-19T10:31:35.958Z,1016.70
2018-08-19T10:32:35.952Z,1016.68
2018-08-19T10:33:36.041Z,1016.59
2018-08-19T10:34:36.022Z,1016.53
2018-08-19T10:35:35.991Z,1016.45
2018-08-19T10:36:36.046Z,1016.36
2018-08-19T10:37:36.089Z,1016.31
2018-08-19T10:38:36.086Z,1016.43
2018-08-19T10:39:36.111Z,1016.34
2018-08-19T10:40:36.169Z,1016.40
2018-08-19T10:41:36.124Z,1016.36
2018-08-19T10:42:36.132Z,1016.39
2018-08-19T10:43:36.140Z,1016.36
2018-08-19T10:44:36.171Z,1016.23
2018-08-19T10:45:36.173Z,1016.31
2018-08-19T10:46:36.315Z,1016.22
2018-08-19T10:47:36.487Z,1016.22
2018-08-19T10:48:36.222Z,1016.23
2018-08-19T10:49:36.251Z,1016.25
2018-08-19T10:50:36.279Z,1016.09
2018-08-19T10:51:36.300Z,1016.04
2018-08-19T10:52:36.340Z,1016.07
2018-08-19T10:53:36.317Z,1016.06
2018-08-19T10:54:36.346Z,1016.11
2018-08-19T10:55:36.413Z,1016.04
2018-08-19T10:56:36.452Z,1016.05
2018-08-19T10:57:36.404Z,1015.96
2018-08-19T10:58:36.451Z,1015.97
2018-08-19T10:59:36.442Z,1015.98
2018-08-19T11:00:37.077Z,1015.96
2018-08-19T11:01:36.466Z,1016.00
2018-08-19T11:02:36.495Z,1015.95
2018-08-19T11:03:36.522Z,1015.85
2018-08-19T11:04:36.553Z,1015.79
2018-08-19T11:05:36.513Z,1015.69
2018-08-19T11:06:36.548Z,1015.67
2018-08-19T11:07:36.566Z,1015.61
2018-08-19T11:08:36.625Z,1015.59
2018-08-19T11:09:36.610Z,1015.57
2018-08-19T11:10:36.649Z,1015.51
2018-08-19T11:11:36.658Z,1015.46
2018-08-19T11:12:36.664Z,1015.43
2018-08-19T11:13:36.660Z,1015.44
2018-08-19T11:14:36.679Z,1015.42
2018-08-19T11:15:36.687Z,1015.46
2018-08-19T11:16:36.707Z,1015.51
2018-08-19T11:17:36.703Z,1015.49
2018-08-19T11:18:36.726Z,1015.42
2018-08-19T11:19:36.735Z,1015.42
2018-08-19T11:20:36.736Z,1015.38
2018-08-19T11:21:36.726Z,1015.43
2018-08-19T11:22:36.829Z,1015.43
2018-08-19T11:23:36.793Z,1015.36
2018-08-19T11:24:36.822Z,1015.38
2018-08-19T11:25:36.833Z,1015.37
2018-08-19T11:26:36.807Z,1015.35
2018-08-19T11:27:36.818Z,1015.36
2018-08-19T11:28:36.819Z,1015.35
2018-08-19T11:29:36.795Z,1015.28
2018-08-19T11:30:36.859Z,1015.35
2018-08-19T11:31:36.938Z,1015.28
2018-08-19T11:32:36.885Z,1015.24
2018-08-19T11:33:36.903Z,1015.25
2018-08-19T11:34:36.890Z,1015.31
2018-08-19T11:35:37.009Z,1015.28
2018-08-19T11:36:36.946Z,1015.26
2018-08-19T11:37:36.925Z,1015.26
2018-08-19T11:38:37.641Z,1015.18
2018-08-19T11:39:36.960Z,1015.20
2018-08-19T11:40:37.160Z,1015.25
2018-08-19T11:41:36.955Z,1015.32
2018-08-19T11:42:36.966Z,1015.28
2018-08-19T11:43:36.975Z,1015.26
2018-08-19T11:44:37.003Z,1015.27
2018-08-19T11:45:37.002Z,1015.27
2018-08-19T11:46:36.989Z,1015.28
2018-08-19T11:47:36.985Z,1015.24
2018-08-19T11:48:37.015Z,1015.23
2018-08-19T11:49:37.058Z,1015.23
2018-08-19T11:50:37.027Z,1015.24
2018-08-19T11:51:37.037Z,1015.21
2018-08-19T11:52:37.057Z,1015.25
2018-08-19T11:53:37.096Z,1015.15
2018-08-19T11:54:37.080Z,1015.17
2018-08-19T11:55:37.976Z,1015.19
2018-08-19T11:56:37.076Z,1015.19
2018-08-19T11:57:37.164Z,1015.18
2018-08-19T11:58:37.174Z,1015.17
2018-08-19T11:59:37.178Z,1015.17
2018-08-19T12:00:37.274Z,1015.21
2018-08-19T12:01:37.138Z,1015.18
2018-08-19T12:02:37.139Z,1015.16
2018-08-19T12:03:37.155Z,1015.15
2018-08-19T12:04:37.140Z,1015.06
2018-08-19T12:05:37.170Z,1015.06
2018-08-19T12:06:37.246Z,1015.16
2018-08-19T12:07:37.215Z,1015.10